createdAt,value
2019-02-10T00:04:52.746Z,13.65
2019-02-10T00:09:54.094Z,21.52
2019-02-10T00:14:56.835Z,24.60
2019-02-10T00:19:58.267Z,18.42
2019-02-10T00:24:59.991Z,18.40
2019-02-10T00:30:04.436Z,26.52
2019-02-10T00:35:05.950Z,21.62
2019-02-10T00:40:07.620Z,22.17
2019-02-10T00:45:09.024Z,16.62
2019-02-10T00:50:10.512Z,16.67
2019-02-10T00:55:12.147Z,28.87
2019-02-10T01:00:13.906Z,20.77
2019-02-10T01:05:15.476Z,20.70
2019-02-10T01:10:18.952Z,23.22
2019-02-10T01:15:20.589Z,25.95
2019-02-10T01:20:22.141Z,20.45
2019-02-10T01:25:23.821Z,26.00
2019-02-10T01:30:25.331Z,21.48
2019-02-10T01:35:26.846Z,23.62
2019-02-10T01:40:28.333Z,16.52
2019-02-10T01:45:29.867Z,17.82
2019-02-10T01:50:31.520Z,23.25
2019-02-10T01:55:34.922Z,12.98
2019-02-10T02:00:36.749Z,14.78
2019-02-10T02:05:38.281Z,15.83
2019-02-10T02:10:42.981Z,15.43
2019-02-10T02:15:44.716Z,18.57
2019-02-10T02:20:46.410Z,14.93
2019-02-10T02:25:48.556Z,12.63
2019-02-10T02:30:50.547Z,15.80
2019-02-10T02:35:52.002Z,15.35
2019-02-10T02:40:53.588Z,15.20
2019-02-10T02:45:56.993Z,18.82
2019-02-10T02:50:58.436Z,21.97
2019-02-10T02:56:00.002Z,24.30
2019-02-10T03:01:01.533Z,15.18
2019-02-10T03:06:02.984Z,19.25
2019-02-10T03:11:04.510Z,15.55
2019-02-10T03:16:05.838Z,18.60
2019-02-10T03:21:07.433Z,16.37
2019-02-10T03:26:09.013Z,18.48
2019-02-10T03:31:10.439Z,12.50
2019-02-10T03:36:11.914Z,18.55
2019-02-10T03:41:13.380Z,27.20
2019-02-10T03:46:14.805Z,18.80
2019-02-10T03:51:16.420Z,20.35
2019-02-10T03:56:18.334Z,16.32
2019-02-10T04:01:19.652Z,17.82
2019-02-10T04:06:20.977Z,19.05
2019-02-10T04:11:24.292Z,15.85
2019-02-10T04:16:25.704Z,22.45
2019-02-10T04:21:27.080Z,15.30
2019-02-10T04:26:28.763Z,14.73
2019-02-10T04:31:32.130Z,13.58
2019-02-10T04:36:33.539Z,12.75
2019-02-10T04:41:35.005Z,13.65
2019-02-10T04:46:36.628Z,14.28
2019-02-10T04:51:38.153Z,10.90
2019-02-10T04:56:39.503Z,11.22
2019-02-10T05:01:41.035Z,10.30
2019-02-10T05:06:42.575Z,13.85
2019-02-10T05:11:44.093Z,12.18
2019-02-10T05:16:45.582Z,10.00
2019-02-10T05:21:46.982Z,7.53
2019-02-10T05:26:48.616Z,5.70
2019-02-10T05:31:50.408Z,9.18
2019-02-10T05:36:51.898Z,7.30
2019-02-10T05:41:53.547Z,8.85
2019-02-10T05:46:55.587Z,6.33
2019-02-10T05:51:57.091Z,5.83
2019-02-10T05:57:00.103Z,6.78
2019-02-10T06:02:06.224Z,6.37
2019-02-10T06:07:16.847Z,7.03
2019-02-10T06:12:20.227Z,4.30
2019-02-10T06:17:21.586Z,6.65
2019-02-10T06:22:23.156Z,6.15
2019-02-10T06:27:24.493Z,6.55
2019-02-10T06:32:25.896Z,5.45
2019-02-10T06:37:28.950Z,6.33
2019-02-10T06:42:30.439Z,6.87
2019-02-10T06:47:31.892Z,8.05
2019-02-10T06:52:33.320Z,7.00
2019-02-10T06:57:36.514Z,8.00
2019-02-10T07:03:28.029Z,9.10
2019-02-10T07:08:30.863Z,8.23
2019-02-10T07:13:36.902Z,10.25
2019-02-10T07:19:37.083Z,9.58
2019-02-10T07:24:59.532Z,9.45
2019-02-10T07:30:09.392Z,8.05
2019-02-10T07:35:42.502Z,9.83
2019-02-10T07:41:17.546Z,9.53
2019-02-10T07:46:33.641Z,8.40
2019-02-10T07:52:23.420Z,7.97
2019-02-10T07:58:00.306Z,9.13
2019-02-10T08:03:10.445Z,6.37
2019-02-10T08:08:46.477Z,6.95
2019-02-10T08:14:16.861Z,8.30
2019-02-10T08:19:43.164Z,7.17
2019-02-10T08:25:17.438Z,5.15
2019-02-10T08:30:42.845Z,6.15
2019-02-10T08:36:21.340Z,3.98
2019-02-10T08:41:34.675Z,4.62
2019-02-10T08:46:53.786Z,4.20
2019-02-10T08:52:16.173Z,3.72
2019-02-10T08:57:17.509Z,4.08
2019-02-10T09:02:37.439Z,5.53
2019-02-10T09:07:38.730Z,4.90
2019-02-10T09:12:42.449Z,5.60
2019-02-10T09:17:45.211Z,6.58
2019-02-10T09:22:53.501Z,5.53
2019-02-10T09:27:55.639Z,9.43
2019-02-10T09:32:59.078Z,10.48
2019-02-10T09:38:00.659Z,9.13
2019-02-10T09:43:02.186Z,6.35
2019-02-10T09:48:03.918Z,7.97
2019-02-10T09:53:05.753Z,5.35
2019-02-10T09:58:07.471Z,5.12
2019-02-10T10:03:09.849Z,5.78
2019-02-10T10:08:11.974Z,3.50
2019-02-10T10:13:15.237Z,2.45
2019-02-10T10:18:17.069Z,3.83
2019-02-10T10:23:18.789Z,3.50
2019-02-10T10:28:20.449Z,2.83
2019-02-10T10:33:22.426Z,4.72
2019-02-10T10:38:24.137Z,4.15
2019-02-10T10:43:25.780Z,4.50
2019-02-10T10:48:30.474Z,3.95
2019-02-10T10:53:32.305Z,4.45
2019-02-10T10:58:34.538Z,6.08
2019-02-10T11:03:36.395Z,5.92
2019-02-10T11:08:37.743Z,4.47
2019-02-10T11:13:39.180Z,6.67
2019-02-10T11:18:41.889Z,3.77
2019-02-10T11:23:43.364Z,3.37
2019-02-10T11:28:45.018Z,3.15
2019-02-10T11:33:47.868Z,3.42
2019-02-10T11:38:49.567Z,4.00
2019-02-10T11:43:51.162Z,3.87
2019-02-10T11:48:53.859Z,4.58
2019-02-10T11:54:01.392Z,5.12
2019-02-10T11:59:03.271Z,4.40
2019-02-10T12:04:04.717Z,9.08
2019-02-10T12:09:08.321Z,12.93
2019-02-10T12:14:11.832Z,4.83
2019-02-10T12:19:13.313Z,9.25
2019-02-10T12:24:14.718Z,4.17
2019-02-10T12:29:16.861Z,2.87
2019-02-10T12:34:20.187Z,6.47
2019-02-10T12:39:21.633Z,10.18
2019-02-10T12:44:22.933Z,4.83
2019-02-10T12:49:24.515Z,3.60
2019-02-10T12:54:31.676Z,5.62
2019-02-10T12:59:33.107Z,4.47
2019-02-10T13:04:34.881Z,4.53
2019-02-10T13:09:36.422Z,6.80
2019-02-10T13:14:39.648Z,3.80
2019-02-10T13:19:42.622Z,2.40
2019-02-10T13:24:44.173Z,3.25
2019-02-10T13:29:45.700Z,7.20
2019-02-10T13:34:47.140Z,7.80
2019-02-10T13:39:51.127Z,4.87
2019-02-10T13:44:52.953Z,5.90
2019-02-10T13:49:54.246Z,3.67
2019-02-10T13:54:55.613Z,7.37
2019-02-10T14:00:04.306Z,6.03
2019-02-10T14:05:06.832Z,9.65
2019-02-10T14:10:14.480Z,15.58
2019-02-10T14:15:18.695Z,3.30
2019-02-10T14:20:20.211Z,1.92
2019-02-10T14:25:25.589Z,1.90
2019-02-10T14:30:26.897Z,3.87
2019-02-10T14:35:28.690Z,4.25
2019-02-10T14:40:33.619Z,2.70
2019-02-10T14:45:44.353Z,0.72
2019-02-10T14:50:46.113Z,0.60
2019-02-10T14:55:47.704Z,1.15
2019-02-10T15:00:50.818Z,2.85
2019-02-10T15:05:52.994Z,3.72
2019-02-10T15:10:54.953Z,3.87
2019-02-10T15:15:57.045Z,2.22
2019-02-10T15:21:00.849Z,2.22
2019-02-10T15:26:04.080Z,19.90
2019-02-10T15:31:05.695Z,13.85
2019-02-10T15:36:07.191Z,12.28
2019-02-10T15:41:08.971Z,11.80
2019-02-10T15:46:10.704Z,10.48
2019-02-10T15:51:12.042Z,9.50
2019-02-10T15:56:13.620Z,9.98
2019-02-10T16:01:15.491Z,5.83
2019-02-10T16:06:16.966Z,7.67
2019-02-10T16:11:20.229Z,7.62
2019-02-10T16:16:21.557Z,7.72
2019-02-10T16:21:23.105Z,5.12
2019-02-10T16:26:24.694Z,1.67
2019-02-10T16:31:26.246Z,1.95
2019-02-10T16:36:28.065Z,0.90
2019-02-10T16:41:29.805Z,1.17
2019-02-10T16:46:31.298Z,1.00
2019-02-10T16:51:32.831Z,3.15
2019-02-10T16:56:34.467Z,2.52
2019-02-10T17:01:36.035Z,1.30
2019-02-10T17:06:39.895Z,2.80
2019-02-10T17:11:43.433Z,2.20
2019-02-10T17:16:46.323Z,3.37
2019-02-10T17:21:47.746Z,3.17
2019-02-10T17:26:51.036Z,4.42
2019-02-10T17:31:52.647Z,3.85
2019-02-10T17:36:54.093Z,2.05
2019-02-10T17:41:55.932Z,4.30
2019-02-10T17:46:57.302Z,4.47
2019-02-10T17:51:58.569Z,4.50
2019-02-10T17:57:00.033Z,3.35
2019-02-10T18:02:01.396Z,5.37
2019-02-10T18:07:02.876Z,4.30
2019-02-10T18:12:04.376Z,4.22
2019-02-10T18:17:10.348Z,2.42
2019-02-10T18:22:31.634Z,2.17
2019-02-10T18:27:39.313Z,5.87
2019-02-10T18:32:45.867Z,4.97
2019-02-10T18:37:49.147Z,2.52
2019-02-10T18:43:04.996Z,3.60
2019-02-10T18:48:11.396Z,3.08
2019-02-10T18:53:17.459Z,7.15
2019-02-10T18:58:24.642Z,5.80
2019-02-10T19:03:31.044Z,3.80
2019-02-10T19:08:37.428Z,5.08
2019-02-10T19:13:46.373Z,2.30
2019-02-10T19:18:58.762Z,1.40
2019-02-10T19:24:07.954Z,4.67
2019-02-10T19:29:15.076Z,8.75
2019-02-10T19:34:18.573Z,9.75
2019-02-10T19:39:21.998Z,5.90
2019-02-10T19:44:25.551Z,8.38
2019-02-10T19:49:45.776Z,6.20
2019-02-10T19:54:56.402Z,7.80
2019-02-10T20:00:18.266Z,5.53
2019-02-10T20:05:24.671Z,3.80
2019-02-10T20:10:34.669Z,5.65
2019-02-10T20:15:43.551Z,9.48
2019-02-10T20:20:53.789Z,9.65
2019-02-10T20:26:06.007Z,7.10
2019-02-10T20:31:25.991Z,7.40
2019-02-10T20:36:38.103Z,7.22
2019-02-10T20:41:45.286Z,6.97
2019-02-10T20:46:58.460Z,5.90
2019-02-10T20:52:02.022Z,8.03
2019-02-10T20:57:11.575Z,8.20
2019-02-10T21:02:18.009Z,11.00
2019-02-10T21:07:21.342Z,6.20
2019-02-10T21:12:33.689Z,8.00
2019-02-10T21:17:42.921Z,8.58
2019-02-10T21:22:46.211Z,12.23
2019-02-10T21:28:04.545Z,5.87
2019-02-10T21:33:08.004Z,11.93
2019-02-10T21:38:28.062Z,9.38
2019-02-10T21:43:34.713Z,7.62
2019-02-10T21:48:36.259Z,13.15
2019-02-10T21:53:39.539Z,17.90
2019-02-10T21:58:40.884Z,7.85
2019-02-10T22:03:42.243Z,13.08
2019-02-10T22:08:43.865Z,13.18
2019-02-10T22:13:48.483Z,17.07
2019-02-10T22:19:02.571Z,13.20
2019-02-10T22:24:05.457Z,9.70
2019-02-10T22:29:10.516Z,5.37
2019-02-10T22:34:12.729Z,7.12
2019-02-10T22:39:14.133Z,7.33
2019-02-10T22:44:19.916Z,7.47
2019-02-10T22:49:21.510Z,22.50
2019-02-10T22:54:24.507Z,35.28
2019-02-10T22:59:26.088Z,30.15
2019-02-10T23:04:27.417Z,26.33
2019-02-10T23:09:30.058Z,29.07
2019-02-10T23:14:32.680Z,16.45
2019-02-10T23:19:34.190Z,7.22
2019-02-10T23:24:39.690Z,14.78
2019-02-10T23:29:41.058Z,6.83
2019-02-10T23:34:45.279Z,4.87
2019-02-10T23:39:46.661Z,6.60
2019-02-10T23:44:48.595Z,7.45
2019-02-10T23:49:50.266Z,4.03
2019-02-10T23:54:51.674Z,4.70
2019-02-10T23:59:53.270Z,4.53
